Time;durP1;ratioP1;P1;durP2;ratioP2;P2;SDS_P1;SDS_P2;PMS_P1;PMS_P2;Temp;Humidity;BMP_temperature;BMP_pressure;BME280_temperature;BME280_humidity;BME280_pressure;Samples;Min_cycle;Max_cycle;Signal;HPM_P1;HPM_P2
2023/01/28 00:00:25;;;;;;;0.00;0.00;;;;;;;;;;6043235;23;20011;-88
2023/01/28 00:02:51;;;;;;;0.00;0.00;;;;;;;;;;6019366;23;20441;-87
2023/01/28 00:05:17;;;;;;;0.00;0.00;;;;;;;;;;6043196;23;20025;-87
2023/01/28 00:07:43;;;;;;;0.00;0.00;;;;;;;;;;6042602;23;20039;-88
2023/01/28 00:10:10;;;;;;;0.00;0.00;;;;;;;;;;6043203;23;20014;-87
2023/01/28 00:12:36;;;;;;;0.00;0.00;;;;;;;;;;6019003;23;20445;-87
2023/01/28 00:15:02;;;;;;;0.00;0.00;;;;;;;;;;6043092;23;20075;-88
2023/01/28 00:17:28;;;;;;;0.00;0.00;;;;;;;;;;6019106;23;20022;-88
2023/01/28 00:19:54;;;;;;;0.13;0.03;;;;;;;;;;6019490;23;20015;-87
2023/01/28 00:22:20;;;;;;;0.70;0.15;;;;;;;;;;6042738;23;20103;-88
2023/01/28 00:24:46;;;;;;;0.00;0.00;;;;;;;;;;6043014;23;20094;-87
2023/01/28 00:27:12;;;;;;;0.00;0.00;;;;;;;;;;6042676;23;20050;-88
2023/01/28 00:29:38;;;;;;;0.00;0.00;;;;;;;;;;6043008;23;20015;-88
2023/01/28 00:32:04;;;;;;;0.00;0.00;;;;;;;;;;6042936;23;20022;-88
2023/01/28 00:34:30;;;;;;;0.00;0.00;;;;;;;;;;6042732;23;20038;-88
2023/01/28 00:36:56;;;;;;;0.00;0.00;;;;;;;;;;6042870;23;20014;-87
2023/01/28 00:39:24;;;;;;;0.00;0.00;;;;;;;;;;6018884;23;20093;-88
2023/01/28 00:41:50;;;;;;;0.00;0.00;;;;;;;;;;6019340;23;20505;-88
2023/01/28 00:44:16;;;;;;;0.00;0.00;;;;;;;;;;6042433;23;20022;-88
2023/01/28 00:46:42;;;;;;;0.30;0.10;;;;;;;;;;6043012;23;20014;-88
2023/01/28 00:49:08;;;;;;;0.00;0.00;;;;;;;;;;6042509;23;20097;-88
2023/01/28 00:51:34;;;;;;;0.00;0.00;;;;;;;;;;6042800;23;20019;-88
2023/01/28 00:54:00;;;;;;;0.00;0.00;;;;;;;;;;6042407;23;20027;-88
2023/01/28 00:56:26;;;;;;;0.00;0.00;;;;;;;;;;6042717;23;20106;-88
2023/01/28 00:58:53;;;;;;;0.00;0.00;;;;;;;;;;6018644;23;20015;-88
2023/01/28 01:01:23;;;;;;;0.00;0.00;;;;;;;;;;6042683;23;20449;-87
2023/01/28 01:03:56;;;;;;;0.00;0.00;;;;;;;;;;6042501;23;20070;-88
2023/01/28 01:06:22;;;;;;;0.00;0.00;;;;;;;;;;6042607;23;20502;-87
2023/01/28 01:08:49;;;;;;;0.00;0.00;;;;;;;;;;6042582;23;20019;-88
2023/01/28 01:11:15;;;;;;;0.00;0.00;;;;;;;;;;6018884;23;20026;-87
2023/01/28 01:13:41;;;;;;;0.00;0.00;;;;;;;;;;6042325;23;20186;-87
2023/01/28 01:16:09;;;;;;;0.00;0.00;;;;;;;;;;6042602;23;20347;-89
2023/01/28 01:18:35;;;;;;;0.00;0.00;;;;;;;;;;6042431;23;20022;-87
2023/01/28 01:21:02;;;;;;;0.52;0.20;;;;;;;;;;6042480;23;20412;-88
2023/01/28 01:23:29;;;;;;;0.00;0.00;;;;;;;;;;6018497;23;20050;-87
2023/01/28 01:25:55;;;;;;;0.00;0.00;;;;;;;;;;6042856;23;20026;-88
2023/01/28 01:28:21;;;;;;;0.00;0.00;;;;;;;;;;6018462;23;20015;-87
2023/01/28 01:30:47;;;;;;;0.00;0.00;;;;;;;;;;6042431;23;20090;-88
2023/01/28 01:33:13;;;;;;;0.00;0.00;;;;;;;;;;6042091;23;20095;-88
2023/01/28 01:35:39;;;;;;;0.00;0.00;;;;;;;;;;6042401;23;20314;-87
2023/01/28 01:38:06;;;;;;;0.00;0.00;;;;;;;;;;6042498;23;20026;-88
2023/01/28 01:40:32;;;;;;;0.00;0.00;;;;;;;;;;6042415;23;20083;-88
2023/01/28 01:42:57;;;;;;;0.00;0.00;;;;;;;;;;6042126;23;20357;-87
2023/01/28 01:45:24;;;;;;;0.00;0.00;;;;;;;;;;6042407;23;20018;-87
2023/01/28 01:48:02;;;;;;;0.65;0.32;;;;;;;;;;6042161;23;20022;-87
2023/01/28 01:50:30;;;;;;;0.00;0.00;;;;;;;;;;6042281;23;20432;-88
2023/01/28 01:53:00;;;;;;;0.00;0.00;;;;;;;;;;6042051;23;20015;-88
2023/01/28 01:55:28;;;;;;;0.00;0.00;;;;;;;;;;6019157;23;20078;-88
2023/01/28 01:57:56;;;;;;;0.00;0.00;;;;;;;;;;6020549;23;20045;-88
2023/01/28 02:00:22;;;;;;;0.00;0.00;;;;;;;;;;6020743;23;20010;-88
2023/01/28 02:02:50;;;;;;;0.00;0.00;;;;;;;;;;6044249;23;20321;-88
2023/01/28 02:05:18;;;;;;;0.00;0.00;;;;;;;;;;6044102;23;20021;-88
2023/01/28 02:07:45;;;;;;;0.00;0.00;;;;;;;;;;6043889;23;20022;-88
2023/01/28 02:10:11;;;;;;;0.00;0.00;;;;;;;;;;6044032;23;20019;-87
2023/01/28 02:12:40;;;;;;;0.00;0.00;;;;;;;;;;6044127;23;20019;-88
2023/01/28 02:15:08;;;;;;;0.00;0.00;;;;;;;;;;6043905;23;20078;-87
2023/01/28 02:17:34;;;;;;;0.00;0.00;;;;;;;;;;6044015;23;20011;-87
2023/01/28 02:20:02;;;;;;;0.00;0.00;;;;;;;;;;6043858;23;20443;-88
2023/01/28 02:22:46;;;;;;;0.00;0.00;;;;;;;;;;6044057;23;20014;-88
2023/01/28 02:25:31;;;;;;;0.00;0.00;;;;;;;;;;6043794;23;20427;-88
2023/01/28 02:27:57;;;;;;;0.00;0.00;;;;;;;;;;6043933;23;20011;-87
2023/01/28 02:30:30;;;;;;;0.00;0.00;;;;;;;;;;6043802;23;20439;-87
2023/01/28 02:32:58;;;;;;;0.00;0.00;;;;;;;;;;6043974;23;20015;-88
2023/01/28 02:35:28;;;;;;;0.00;0.00;;;;;;;;;;6043845;23;20015;-88
2023/01/28 02:38:07;;;;;;;0.00;0.00;;;;;;;;;;6020289;23;20079;-87
2023/01/28 02:41:00;;;;;;;0.00;0.00;;;;;;;;;;6043641;23;20474;-88
2023/01/28 02:43:35;;;;;;;0.00;0.00;;;;;;;;;;6044309;23;20033;-88
2023/01/28 02:48:48;;;;;;;0.00;0.00;;;;;;;;;;6043770;23;20031;-87
2023/01/28 02:51:20;;;;;;;0.00;0.00;;;;;;;;;;6044606;23;20019;-87
2023/01/28 02:54:10;;;;;;;0.00;0.00;;;;;;;;;;6043631;23;20015;-88
2023/01/28 02:56:57;;;;;;;0.00;0.00;;;;;;;;;;6036350;23;20051;-87
2023/01/28 02:59:31;;;;;;;0.00;0.00;;;;;;;;;;5991587;23;20090;-87
2023/01/28 03:02:12;;;;;;;0.00;0.00;;;;;;;;;;6020091;23;20022;-87
2023/01/28 03:04:44;;;;;;;0.00;0.00;;;;;;;;;;6019910;23;20022;-87
2023/01/28 03:07:11;;;;;;;0.47;0.20;;;;;;;;;;6043337;23;20018;-87
2023/01/28 03:09:39;;;;;;;0.00;0.00;;;;;;;;;;6019845;23;20070;-88
2023/01/28 03:37:49;;;;;;;0.00;0.00;;;;;;;;;;6043326;23;20023;-88
2023/01/28 03:40:15;;;;;;;0.00;0.00;;;;;;;;;;6043306;23;20337;-88
2023/01/28 03:42:41;;;;;;;0.00;0.00;;;;;;;;;;6043444;23;20085;-88
2023/01/28 03:45:07;;;;;;;0.00;0.00;;;;;;;;;;6019551;23;20103;-87
2023/01/28 03:47:33;;;;;;;0.00;0.00;;;;;;;;;;6043349;23;20010;-87
2023/01/28 03:49:59;;;;;;;0.00;0.00;;;;;;;;;;6043211;23;20089;-88
2023/01/28 03:52:30;;;;;;;0.00;0.00;;;;;;;;;;6043277;23;20010;-88
2023/01/28 03:54:56;;;;;;;0.00;0.00;;;;;;;;;;6043341;23;20441;-88
2023/01/28 03:57:24;;;;;;;0.00;0.00;;;;;;;;;;6043195;23;20015;-87
2023/01/28 03:59:51;;;;;;;0.00;0.00;;;;;;;;;;6042983;23;20014;-88
2023/01/28 04:02:18;;;;;;;0.00;0.00;;;;;;;;;;6043178;23;20019;-88
2023/01/28 04:04:44;;;;;;;0.00;0.00;;;;;;;;;;6043107;23;20019;-88
2023/01/28 04:07:10;;;;;;;0.00;0.00;;;;;;;;;;6019280;23;20520;-88
2023/01/28 04:09:37;;;;;;;0.20;0.17;;;;;;;;;;6019364;23;20050;-88
2023/01/28 04:12:03;;;;;;;0.00;0.00;;;;;;;;;;6019627;23;20023;-87
2023/01/28 04:14:29;;;;;;;0.00;0.00;;;;;;;;;;6042750;23;20014;-88
2023/01/28 04:16:56;;;;;;;0.00;0.00;;;;;;;;;;6042958;23;20017;-87
2023/01/28 04:19:22;;;;;;;0.00;0.00;;;;;;;;;;6018879;23;20159;-87
2023/01/28 04:21:49;;;;;;;0.00;0.00;;;;;;;;;;6019187;23;20066;-88
2023/01/28 04:24:15;;;;;;;0.00;0.00;;;;;;;;;;6043014;23;20047;-88
2023/01/28 04:26:41;;;;;;;0.00;0.00;;;;;;;;;;6042658;23;20497;-87
2023/01/28 04:29:07;;;;;;;0.00;0.00;;;;;;;;;;6042972;23;20519;-87
2023/01/28 04:31:33;;;;;;;0.00;0.00;;;;;;;;;;6042797;23;20026;-87
2023/01/28 04:34:00;;;;;;;0.00;0.00;;;;;;;;;;6042858;23;20336;-88
2023/01/28 04:36:26;;;;;;;0.00;0.00;;;;;;;;;;6018890;23;20075;-87
2023/01/28 04:38:52;;;;;;;0.00;0.00;;;;;;;;;;6042869;23;20011;-86
2023/01/28 04:41:18;;;;;;;0.00;0.00;;;;;;;;;;6042616;23;20512;-87
2023/01/28 04:43:44;;;;;;;0.00;0.00;;;;;;;;;;6042867;23;20020;-87
2023/01/28 04:46:10;;;;;;;0.00;0.00;;;;;;;;;;6018881;23;20021;-88
2023/01/28 04:48:37;;;;;;;0.00;0.00;;;;;;;;;;6042747;23;20025;-87
2023/01/28 04:51:03;;;;;;;0.00;0.00;;;;;;;;;;6042975;23;20014;-87
2023/01/28 04:53:30;;;;;;;0.28;0.28;;;;;;;;;;6018928;23;20019;-87
2023/01/28 04:55:56;;;;;;;0.00;0.00;;;;;;;;;;6018892;23;20089;-87
2023/01/28 04:58:22;;;;;;;0.00;0.00;;;;;;;;;;6042642;23;20015;-87
2023/01/28 05:00:52;;;;;;;0.00;0.00;;;;;;;;;;6042348;23;20023;-87
2023/01/28 05:03:18;;;;;;;0.00;0.00;;;;;;;;;;6042691;23;20057;-87
2023/01/28 05:05:44;;;;;;;0.00;0.00;;;;;;;;;;6042453;23;20015;-88
2023/01/28 05:08:10;;;;;;;0.00;0.00;;;;;;;;;;6042325;23;20029;-87
2023/01/28 05:10:36;;;;;;;0.00;0.00;;;;;;;;;;6018979;23;20019;-87
2023/01/28 05:13:03;;;;;;;0.00;0.00;;;;;;;;;;6042536;23;20027;-89
2023/01/28 05:15:29;;;;;;;0.00;0.00;;;;;;;;;;6042430;23;20093;-87
2023/01/28 05:17:56;;;;;;;0.00;0.00;;;;;;;;;;6042509;23;20042;-87
2023/01/28 05:20:22;;;;;;;0.00;0.00;;;;;;;;;;6018652;23;20074;-87
2023/01/28 05:22:48;;;;;;;0.00;0.00;;;;;;;;;;6043476;23;20022;-87
2023/01/28 05:25:13;;;;;;;0.20;0.08;;;;;;;;;;6043847;23;20021;-87
2023/01/28 05:27:39;;;;;;;0.00;0.00;;;;;;;;;;6042597;23;20015;-86
2023/01/28 05:30:06;;;;;;;0.00;0.00;;;;;;;;;;6042237;23;20022;-88
2023/01/28 05:32:32;;;;;;;0.00;0.00;;;;;;;;;;6018552;23;20018;-87
2023/01/28 05:34:58;;;;;;;0.00;0.00;;;;;;;;;;6042461;23;20070;-87
2023/01/28 05:37:24;;;;;;;0.00;0.00;;;;;;;;;;6042122;23;20393;-86
2023/01/28 05:39:50;;;;;;;0.00;0.00;;;;;;;;;;6042403;23;20022;-87
2023/01/28 05:42:17;;;;;;;0.00;0.00;;;;;;;;;;6042193;23;20011;-87
2023/01/28 05:44:43;;;;;;;0.00;0.00;;;;;;;;;;6018563;23;20015;-86
2023/01/28 05:47:09;;;;;;;0.00;0.00;;;;;;;;;;6018479;23;20093;-87
2023/01/28 05:49:35;;;;;;;0.00;0.00;;;;;;;;;;6018748;23;20050;-87
2023/01/28 05:52:01;;;;;;;0.00;0.00;;;;;;;;;;6042053;23;20053;-86
2023/01/28 05:54:28;;;;;;;0.00;0.00;;;;;;;;;;6042306;23;20019;-87
2023/01/28 05:56:54;;;;;;;0.00;0.00;;;;;;;;;;6018408;23;20341;-87
2023/01/28 05:59:20;;;;;;;0.00;0.00;;;;;;;;;;6042373;23;20014;-86
2023/01/28 06:01:46;;;;;;;0.00;0.00;;;;;;;;;;6042135;23;20471;-87
2023/01/28 06:04:12;;;;;;;0.00;0.00;;;;;;;;;;6042327;23;20015;-86
2023/01/28 06:06:38;;;;;;;0.00;0.00;;;;;;;;;;6041711;23;20086;-86
2023/01/28 06:09:04;;;;;;;0.00;0.00;;;;;;;;;;6042375;23;20018;-87
2023/01/28 06:11:30;;;;;;;0.00;0.00;;;;;;;;;;6042225;23;20015;-86
2023/01/28 06:13:56;;;;;;;0.00;0.00;;;;;;;;;;6042253;23;20015;-86
2023/01/28 06:16:22;;;;;;;0.00;0.00;;;;;;;;;;6041919;23;20523;-86
2023/01/28 06:18:48;;;;;;;0.00;0.00;;;;;;;;;;6042238;23;20015;-86
2023/01/28 06:21:13;;;;;;;0.00;0.00;;;;;;;;;;6041996;23;20019;-86
2023/01/28 06:23:39;;;;;;;0.00;0.00;;;;;;;;;;6042227;23;20090;-86
2023/01/28 06:26:05;;;;;;;0.00;0.00;;;;;;;;;;6042005;23;20094;-87
2023/01/28 06:28:32;;;;;;;0.00;0.00;;;;;;;;;;6042173;23;20018;-86
2023/01/28 06:30:57;;;;;;;0.00;0.00;;;;;;;;;;6041936;23;20101;-87
2023/01/28 06:33:23;;;;;;;0.13;0.13;;;;;;;;;;6042066;23;20047;-86
2023/01/28 06:35:49;;;;;;;0.00;0.00;;;;;;;;;;6041968;23;20015;-86
2023/01/28 06:38:15;;;;;;;0.00;0.00;;;;;;;;;;6042023;23;20011;-87
2023/01/28 06:40:41;;;;;;;0.00;0.00;;;;;;;;;;6042232;23;20019;-86
2023/01/28 06:43:07;;;;;;;0.00;0.00;;;;;;;;;;6043582;23;20029;-87
2023/01/28 06:45:33;;;;;;;0.00;0.00;;;;;;;;;;6043992;23;20062;-86
2023/01/28 06:47:59;;;;;;;0.00;0.00;;;;;;;;;;6043675;23;20408;-88
2023/01/28 06:50:25;;;;;;;0.00;0.00;;;;;;;;;;6044005;23;20015;-87
2023/01/28 06:52:51;;;;;;;0.00;0.00;;;;;;;;;;6043675;23;20222;-87
2023/01/28 06:55:17;;;;;;;0.00;0.00;;;;;;;;;;6020332;23;20175;-87
2023/01/28 06:57:46;;;;;;;0.00;0.00;;;;;;;;;;6043606;23;20011;-86
2023/01/28 07:00:14;;;;;;;0.00;0.00;;;;;;;;;;6043759;23;20011;-86
2023/01/28 07:02:40;;;;;;;0.00;0.00;;;;;;;;;;6043510;23;20011;-87
2023/01/28 07:05:06;;;;;;;0.10;0.00;;;;;;;;;;6043810;23;20065;-87
2023/01/28 07:07:32;;;;;;;0.00;0.00;;;;;;;;;;6043150;23;20026;-86
2023/01/28 07:09:58;;;;;;;0.00;0.00;;;;;;;;;;6043751;23;20516;-86
2023/01/28 07:12:24;;;;;;;0.00;0.00;;;;;;;;;;6043479;23;20015;-86
2023/01/28 07:14:50;;;;;;;0.00;0.00;;;;;;;;;;6043530;23;20034;-87
2023/01/28 07:17:16;;;;;;;0.00;0.00;;;;;;;;;;6043428;23;20011;-86
2023/01/28 07:19:42;;;;;;;0.00;0.00;;;;;;;;;;6043741;23;20015;-86
2023/01/28 07:22:08;;;;;;;0.00;0.00;;;;;;;;;;6043459;23;20551;-87
2023/01/28 07:24:34;;;;;;;0.00;0.00;;;;;;;;;;6043657;23;20073;-86
2023/01/28 07:27:00;;;;;;;0.00;0.00;;;;;;;;;;6043288;23;20019;-87
2023/01/28 07:29:26;;;;;;;0.00;0.00;;;;;;;;;;6019998;23;20069;-89
2023/01/28 07:31:52;;;;;;;0.00;0.00;;;;;;;;;;6019641;23;20453;-87
2023/01/28 07:34:18;;;;;;;0.00;0.00;;;;;;;;;;6043397;23;20029;-87
2023/01/28 07:36:44;;;;;;;0.00;0.00;;;;;;;;;;6043600;23;20118;-87
2023/01/28 07:39:10;;;;;;;0.00;0.00;;;;;;;;;;6043465;23;20010;-87
2023/01/28 07:41:36;;;;;;;0.00;0.00;;;;;;;;;;6043569;23;20481;-92
2023/01/28 07:44:02;;;;;;;0.00;0.00;;;;;;;;;;6020141;23;20026;-90
2023/01/28 07:46:28;;;;;;;0.00;0.00;;;;;;;;;;6043651;23;20437;-91
2023/01/28 07:48:54;;;;;;;0.25;0.10;;;;;;;;;;6020028;23;20098;-90
2023/01/28 07:51:20;;;;;;;0.00;0.00;;;;;;;;;;6020550;23;20345;-90
2023/01/28 07:53:46;;;;;;;0.00;0.00;;;;;;;;;;6042855;23;20019;-93
2023/01/28 07:56:12;;;;;;;0.00;0.00;;;;;;;;;;6022054;23;20015;-90
2023/01/28 07:58:38;;;;;;;0.17;0.10;;;;;;;;;;6043400;23;20019;-91
2023/01/28 08:01:04;;;;;;;0.00;0.00;;;;;;;;;;6020132;23;20046;-89
2023/01/28 08:03:30;;;;;;;0.00;0.00;;;;;;;;;;6046363;23;20019;-91
2023/01/28 08:05:56;;;;;;;0.00;0.00;;;;;;;;;;6043379;23;20021;-92
2023/01/28 08:08:23;;;;;;;0.20;0.10;;;;;;;;;;6042815;23;20472;-93
2023/01/28 08:10:50;;;;;;;0.00;0.00;;;;;;;;;;6019864;23;20018;-85
2023/01/28 08:13:16;;;;;;;0.00;0.00;;;;;;;;;;6042741;23;20019;-86
2023/01/28 08:15:43;;;;;;;0.00;0.00;;;;;;;;;;6043507;23;20014;-88
2023/01/28 08:18:11;;;;;;;0.00;0.00;;;;;;;;;;6019076;23;20018;-90
2023/01/28 08:20:37;;;;;;;0.00;0.00;;;;;;;;;;6019730;23;20015;-89
2023/01/28 08:23:07;;;;;;;0.00;0.00;;;;;;;;;;6019197;23;20018;-89
2023/01/28 08:25:35;;;;;;;0.00;0.00;;;;;;;;;;6043709;23;20101;-89
2023/01/28 08:28:01;;;;;;;0.00;0.00;;;;;;;;;;6019141;23;20357;-89
2023/01/28 08:30:27;;;;;;;0.00;0.00;;;;;;;;;;6043013;23;20019;-90
2023/01/28 08:32:56;;;;;;;0.00;0.00;;;;;;;;;;6042716;23;20509;-89
2023/01/28 08:35:22;;;;;;;0.00;0.00;;;;;;;;;;6019389;23;20011;-89
2023/01/28 08:37:48;;;;;;;0.00;0.00;;;;;;;;;;6019168;23;20038;-89
2023/01/28 08:40:15;;;;;;;0.00;0.00;;;;;;;;;;6019289;23;20019;-89
2023/01/28 08:42:46;;;;;;;0.00;0.00;;;;;;;;;;6042597;23;20081;-90
2023/01/28 08:45:12;;;;;;;0.00;0.00;;;;;;;;;;6042899;23;20024;-89
2023/01/28 08:47:46;;;;;;;0.08;0.00;;;;;;;;;;6019211;23;20015;-89
2023/01/28 08:50:12;;;;;;;0.00;0.00;;;;;;;;;;6043642;23;20046;-90
2023/01/28 08:52:39;;;;;;;0.00;0.00;;;;;;;;;;6042637;23;20247;-89
2023/01/28 08:55:06;;;;;;;0.00;0.00;;;;;;;;;;6043013;23;20110;-89
2023/01/28 08:57:32;;;;;;;0.00;0.00;;;;;;;;;;6018489;23;20121;-90
2023/01/28 08:59:58;;;;;;;0.00;0.00;;;;;;;;;;6042830;23;20379;-90
2023/01/28 09:02:24;;;;;;;0.00;0.00;;;;;;;;;;6019098;23;20034;-89
2023/01/28 09:04:50;;;;;;;0.00;0.00;;;;;;;;;;6018994;23;20016;-91
2023/01/28 09:07:16;;;;;;;0.00;0.00;;;;;;;;;;6018846;23;20023;-91
2023/01/28 09:09:42;;;;;;;0.00;0.00;;;;;;;;;;6019288;23;20023;-91
2023/01/28 09:12:09;;;;;;;0.00;0.00;;;;;;;;;;6043008;23;20098;-91
2023/01/28 09:14:35;;;;;;;0.03;0.03;;;;;;;;;;6019035;23;20130;-91
2023/01/28 09:17:01;;;;;;;0.00;0.00;;;;;;;;;;6018715;23;20061;-86
2023/01/28 09:19:28;;;;;;;0.00;0.00;;;;;;;;;;6042473;23;20086;-90
2023/01/28 09:21:54;;;;;;;0.00;0.00;;;;;;;;;;6043417;23;20047;-91
2023/01/28 09:24:20;;;;;;;0.00;0.00;;;;;;;;;;6042569;23;20030;-90
2023/01/28 09:26:49;;;;;;;0.00;0.00;;;;;;;;;;6042913;23;20014;-90
2023/01/28 09:29:16;;;;;;;0.88;0.17;;;;;;;;;;6042758;23;20201;-90
2023/01/28 09:31:42;;;;;;;0.00;0.00;;;;;;;;;;6043075;23;20070;-91
2023/01/28 09:34:08;;;;;;;0.00;0.00;;;;;;;;;;6018905;23;20023;-91
2023/01/28 09:36:35;;;;;;;0.00;0.00;;;;;;;;;;6018988;23;20082;-88
2023/01/28 09:39:01;;;;;;;0.17;0.00;;;;;;;;;;6042706;23;20045;-88
2023/01/28 09:41:45;;;;;;;0.00;0.00;;;;;;;;;;6042697;23;20086;-91
2023/01/28 09:44:21;;;;;;;0.00;0.00;;;;;;;;;;6019286;23;20018;-89
2023/01/28 09:46:47;;;;;;;0.00;0.00;;;;;;;;;;6042593;23;20026;-91
2023/01/28 09:49:28;;;;;;;0.00;0.00;;;;;;;;;;6018838;23;20019;-91
2023/01/28 09:51:55;;;;;;;0.00;0.00;;;;;;;;;;6042641;23;20034;-90
2023/01/28 09:54:41;;;;;;;0.00;0.00;;;;;;;;;;6042053;23;20019;-90
2023/01/28 09:57:13;;;;;;;0.00;0.00;;;;;;;;;;6042759;23;20379;-93
2023/01/28 09:59:39;;;;;;;0.00;0.00;;;;;;;;;;6018798;23;20015;-90
2023/01/28 10:02:25;;;;;;;0.45;0.10;;;;;;;;;;6042275;23;20337;-89
2023/01/28 10:05:10;;;;;;;0.00;0.00;;;;;;;;;;6018639;23;20022;-90
2023/01/28 10:07:41;;;;;;;0.00;0.00;;;;;;;;;;6018393;23;20054;-89
2023/01/28 10:10:26;;;;;;;0.00;0.00;;;;;;;;;;6042100;23;20015;-91
2023/01/28 10:12:58;;;;;;;0.00;0.00;;;;;;;;;;6018492;23;20069;-90
2023/01/28 10:15:43;;;;;;;0.00;0.00;;;;;;;;;;6042422;23;20385;-90
2023/01/28 10:18:10;;;;;;;0.00;0.00;;;;;;;;;;6043615;23;20445;-91
2023/01/28 10:20:42;;;;;;;0.00;0.00;;;;;;;;;;6020395;23;20011;-91
2023/01/28 10:23:26;;;;;;;0.00;0.00;;;;;;;;;;6043846;23;20029;-90
2023/01/28 10:25:53;;;;;;;0.00;0.00;;;;;;;;;;6044529;23;20046;-90
2023/01/28 10:28:19;;;;;;;0.00;0.00;;;;;;;;;;6020134;23;20054;-89
2023/01/28 10:30:46;;;;;;;0.00;0.00;;;;;;;;;;6043981;23;20015;-90
2023/01/28 10:33:21;;;;;;;0.00;0.00;;;;;;;;;;6043694;23;20063;-91
2023/01/28 10:35:48;;;;;;;0.00;0.00;;;;;;;;;;6020400;23;20015;-88
2023/01/28 10:38:15;;;;;;;0.00;0.00;;;;;;;;;;6020051;23;20413;-89
2023/01/28 10:40:42;;;;;;;0.00;0.00;;;;;;;;;;6020349;23;20011;-90
2023/01/28 10:43:08;;;;;;;0.00;0.00;;;;;;;;;;6043919;23;20029;-89
2023/01/28 10:45:37;;;;;;;0.00;0.00;;;;;;;;;;6044262;23;20015;-89
2023/01/28 10:48:06;;;;;;;0.00;0.00;;;;;;;;;;6020234;23;20014;-89
2023/01/28 10:50:34;;;;;;;0.15;0.10;;;;;;;;;;6043783;23;20015;-91
2023/01/28 10:53:04;;;;;;;0.00;0.00;;;;;;;;;;6044089;23;20019;-90
2023/01/28 10:55:34;;;;;;;0.05;0.00;;;;;;;;;;6044361;23;20026;-91
2023/01/28 10:58:01;;;;;;;0.00;0.00;;;;;;;;;;6020965;23;20018;-91
2023/01/28 11:00:31;;;;;;;0.00;0.00;;;;;;;;;;6020845;23;20015;-93
2023/01/28 11:02:57;;;;;;;0.00;0.00;;;;;;;;;;6020752;23;20018;-92
2023/01/28 11:05:26;;;;;;;0.00;0.00;;;;;;;;;;6044147;23;20015;-91
2023/01/28 11:08:02;;;;;;;0.00;0.00;;;;;;;;;;6044104;23;20040;-91
2023/01/28 11:10:31;;;;;;;0.00;0.00;;;;;;;;;;6020114;23;20026;-93
2023/01/28 11:13:01;;;;;;;0.00;0.00;;;;;;;;;;6043910;23;20077;-92
2023/01/28 11:15:27;;;;;;;0.00;0.00;;;;;;;;;;6020099;23;20011;-90
2023/01/28 11:18:07;;;;;;;0.00;0.00;;;;;;;;;;6044040;23;20449;-91
2023/01/28 11:20:38;;;;;;;0.00;0.00;;;;;;;;;;6020367;23;20011;-92
2023/01/28 11:23:04;;;;;;;0.30;0.10;;;;;;;;;;6020496;23;20026;-90
2023/01/28 11:25:31;;;;;;;0.00;0.00;;;;;;;;;;6044029;23;20057;-91
2023/01/28 11:27:59;;;;;;;0.00;0.00;;;;;;;;;;6043702;23;20022;-91
2023/01/28 11:30:26;;;;;;;0.00;0.00;;;;;;;;;;6043810;23;20018;-90
2023/01/28 11:32:57;;;;;;;0.00;0.00;;;;;;;;;;6043893;23;20022;-93
2023/01/28 11:35:26;;;;;;;0.00;0.00;;;;;;;;;;6019903;23;20022;-89
2023/01/28 11:37:54;;;;;;;0.00;0.00;;;;;;;;;;6020546;23;20015;-91
2023/01/28 11:40:20;;;;;;;0.00;0.00;;;;;;;;;;6043692;23;20067;-90
2023/01/28 11:42:55;;;;;;;0.00;0.00;;;;;;;;;;6020091;23;20483;-95
2023/01/28 11:45:41;;;;;;;0.00;0.00;;;;;;;;;;6046934;23;20466;-92
2023/01/28 11:48:21;;;;;;;0.00;0.00;;;;;;;;;;6044097;23;20014;-91
2023/01/28 11:50:50;;;;;;;0.00;0.00;;;;;;;;;;6020114;23;20010;-91
2023/01/28 11:53:23;;;;;;;0.00;0.00;;;;;;;;;;6020248;23;20465;-91
2023/01/28 11:56:08;;;;;;;0.00;0.00;;;;;;;;;;6043698;23;20050;-91
2023/01/28 11:58:53;;;;;;;0.25;0.20;;;;;;;;;;6020586;23;20015;-91
2023/01/28 12:01:33;;;;;;;0.00;0.00;;;;;;;;;;6043539;23;20046;-90
2023/01/28 12:04:32;;;;;;;0.00;0.00;;;;;;;;;;6043584;23;20014;-93
2023/01/28 12:06:58;;;;;;;0.00;0.00;;;;;;;;;;5988156;23;20033;-90
2023/01/28 12:09:24;;;;;;;0.00;0.00;;;;;;;;;;6018080;23;20512;-90
2023/01/28 12:12:11;;;;;;;0.00;0.00;;;;;;;;;;6042007;23;20024;-90
2023/01/28 12:14:37;;;;;;;0.00;0.00;;;;;;;;;;6017998;23;20022;-91
2023/01/28 12:17:06;;;;;;;0.00;0.00;;;;;;;;;;6041979;23;20011;-91
2023/01/28 12:19:45;;;;;;;0.03;0.03;;;;;;;;;;6018190;23;20094;-91
2023/01/28 12:22:21;;;;;;;0.00;0.00;;;;;;;;;;6018517;23;20015;-89
2023/01/28 12:25:10;;;;;;;0.00;0.00;;;;;;;;;;6041777;23;20089;-89
2023/01/28 12:27:46;;;;;;;0.00;0.00;;;;;;;;;;6010874;23;20019;-90
2023/01/28 12:30:12;;;;;;;;;;;;;;;;;;6042381;23;20345;-90
2023/01/28 12:32:41;;;;;;;0.00;0.00;;;;;;;;;;6042076;23;19918;-90
2023/01/28 12:35:10;;;;;;;0.00;0.00;;;;;;;;;;6018670;23;20019;-90
2023/01/28 12:37:36;;;;;;;0.00;0.00;;;;;;;;;;6018180;23;20015;-90
2023/01/28 12:40:02;;;;;;;0.00;0.00;;;;;;;;;;6017570;23;20011;-89
2023/01/28 12:42:28;;;;;;;0.00;0.00;;;;;;;;;;6018518;23;20082;-90
2023/01/28 12:44:58;;;;;;;0.00;0.00;;;;;;;;;;6041665;23;20021;-92
2023/01/28 12:47:27;;;;;;;0.00;0.00;;;;;;;;;;6043018;23;20019;-93
2023/01/28 12:49:57;;;;;;;0.00;0.00;;;;;;;;;;6041499;23;20471;-90
2023/01/28 12:52:34;;;;;;;0.00;0.00;;;;;;;;;;6041658;23;20098;-90
2023/01/28 12:55:04;;;;;;;0.00;0.00;;;;;;;;;;6041451;23;20453;-90
2023/01/28 12:57:31;;;;;;;0.00;0.00;;;;;;;;;;6041757;23;20054;-90
2023/01/28 13:00:17;;;;;;;0.00;0.00;;;;;;;;;;6041405;23;20015;-89
2023/01/28 13:02:46;;;;;;;0.00;0.00;;;;;;;;;;6017946;23;20015;-90
2023/01/28 13:05:15;;;;;;;0.00;0.00;;;;;;;;;;6041431;23;20014;-90
2023/01/28 13:07:45;;;;;;;0.00;0.00;;;;;;;;;;5997863;23;1058685;-89
2023/01/28 13:10:17;;;;;;;0.38;0.10;;;;;;;;;;6042659;23;20018;-90
2023/01/28 13:12:44;;;;;;;0.00;0.00;;;;;;;;;;6042816;23;20017;-90
2023/01/28 13:15:11;;;;;;;0.00;0.00;;;;;;;;;;6018783;23;20021;-91
2023/01/28 13:17:37;;;;;;;0.00;0.00;;;;;;;;;;6018862;23;20089;-90
2023/01/28 13:20:13;;;;;;;0.00;0.00;;;;;;;;;;6042570;23;20073;-89
2023/01/28 13:22:39;;;;;;;;;;;;;;;;;;6019731;23;20011;-90
2023/01/28 13:25:12;;;;;;;0.00;0.00;;;;;;;;;;6042441;23;20382;-90
2023/01/28 13:27:38;;;;;;;0.00;0.00;;;;;;;;;;6018802;23;20023;-89
2023/01/28 13:30:21;;;;;;;0.00;0.00;;;;;;;;;;6042360;23;20021;-89
2023/01/28 13:32:54;;;;;;;0.00;0.00;;;;;;;;;;6042593;23;20341;-90
2023/01/28 13:35:34;;;;;;;0.00;0.00;;;;;;;;;;6042536;23;20015;-92
2023/01/28 13:38:05;;;;;;;0.00;0.00;;;;;;;;;;6018950;23;20017;-90
2023/01/28 13:40:32;;;;;;;0.00;0.00;;;;;;;;;;6042340;23;20018;-90
2023/01/28 13:43:03;;;;;;;0.00;0.00;;;;;;;;;;6042724;23;20018;-90
2023/01/28 13:45:30;;;;;;;0.00;0.00;;;;;;;;;;6042184;23;20512;-89
2023/01/28 13:48:17;;;;;;;0.00;0.00;;;;;;;;;;6018819;23;20062;-90
2023/01/28 13:50:44;;;;;;;0.00;0.00;;;;;;;;;;6042087;23;20059;-90
2023/01/28 13:53:22;;;;;;;0.00;0.00;;;;;;;;;;6018627;23;20019;-89
2023/01/28 13:55:48;;;;;;;0.00;0.00;;;;;;;;;;6018780;23;20011;-91
2023/01/28 13:58:20;;;;;;;0.00;0.00;;;;;;;;;;6018793;23;20019;-90
2023/01/28 14:00:55;;;;;;;0.00;0.00;;;;;;;;;;6042597;23;20377;-90
2023/01/28 14:03:50;;;;;;;0.00;0.00;;;;;;;;;;6018723;23;20536;-90
2023/01/28 14:06:37;;;;;;;0.00;0.00;;;;;;;;;;6018517;23;20412;-91
2023/01/28 14:09:22;;;;;;;0.00;0.00;;;;;;;;;;6018729;23;20528;-90
2023/01/28 14:11:54;;;;;;;0.00;0.00;;;;;;;;;;6042287;23;20093;-90
2023/01/28 14:14:35;;;;;;;0.00;0.00;;;;;;;;;;6042379;23;20026;-90
2023/01/28 14:17:22;;;;;;;0.00;0.00;;;;;;;;;;6042006;23;20011;-89
2023/01/28 14:19:49;;;;;;;0.00;0.00;;;;;;;;;;6018834;23;20026;-90
2023/01/28 14:22:19;;;;;;;0.00;0.00;;;;;;;;;;6018478;23;20015;-90
2023/01/28 14:24:45;;;;;;;0.00;0.00;;;;;;;;;;6018707;23;20015;-89
2023/01/28 14:27:22;;;;;;;0.00;0.00;;;;;;;;;;6042345;23;20313;-89
2023/01/28 14:30:06;;;;;;;0.00;0.00;;;;;;;;;;6018812;23;20037;-91
2023/01/28 14:32:33;;;;;;;0.00;0.00;;;;;;;;;;6042137;23;20019;-90
2023/01/28 14:35:04;;;;;;;0.00;0.00;;;;;;;;;;6042154;23;20053;-90
2023/01/28 14:37:31;;;;;;;0.00;0.00;;;;;;;;;;6018356;23;20112;-90
2023/01/28 14:39:58;;;;;;;0.00;0.00;;;;;;;;;;6018312;23;20090;-91
2023/01/28 14:42:26;;;;;;;0.00;0.00;;;;;;;;;;6018233;23;20089;-90
2023/01/28 14:44:55;;;;;;;0.00;0.00;;;;;;;;;;6042551;23;20015;-89
2023/01/28 14:47:21;;;;;;;0.00;0.00;;;;;;;;;;6041917;23;20011;-90
2023/01/28 14:49:59;;;;;;;0.00;0.00;;;;;;;;;;6042142;23;20094;-90
2023/01/28 14:52:37;;;;;;;0.00;0.00;;;;;;;;;;6041954;23;20457;-89
2023/01/28 14:55:15;;;;;;;0.85;0.85;;;;;;;;;;6018402;23;20015;-89
2023/01/28 14:57:48;;;;;;;0.00;0.00;;;;;;;;;;6018281;23;20018;-91
2023/01/28 15:00:25;;;;;;;0.00;0.00;;;;;;;;;;6018555;23;20022;-90
2023/01/28 15:02:51;;;;;;;0.00;0.00;;;;;;;;;;6043129;23;20021;-89
2023/01/28 15:05:18;;;;;;;0.05;0.05;;;;;;;;;;6044017;23;20011;-90
2023/01/28 15:07:45;;;;;;;0.00;0.00;;;;;;;;;;6018886;23;20026;-89
2023/01/28 15:10:11;;;;;;;0.00;0.00;;;;;;;;;;6019333;23;20346;-89
2023/01/28 15:12:39;;;;;;;0.20;0.10;;;;;;;;;;6043235;23;20011;-90
2023/01/28 15:15:11;;;;;;;0.00;0.00;;;;;;;;;;6043750;23;20021;-90
2023/01/28 15:17:38;;;;;;;0.00;0.00;;;;;;;;;;6019755;23;20011;-88
2023/01/28 15:20:06;;;;;;;0.00;0.00;;;;;;;;;;6020022;23;20015;-90
2023/01/28 15:22:32;;;;;;;0.00;0.00;;;;;;;;;;6042743;23;20014;-90